sensor_id;sensor_type;location;lat;lon;timestamp;pressure;altitude;pressure_sealevel;temperature;humidity
17936;BME280;9093;52.062;4.508;2023-03-13T00:02:28;100378.41;;;9.87;76.51
17936;BME280;9093;52.062;4.508;2023-03-13T00:05:08;100367.75;;;9.87;76.67
17936;BME280;9093;52.062;4.508;2023-03-13T00:07:49;100357.00;;;9.88;76.71
17936;BME280;9093;52.062;4.508;2023-03-13T00:10:29;100360.53;;;9.89;76.81
17936;BME280;9093;52.062;4.508;2023-03-13T00:13:09;100344.44;;;9.90;76.85
17936;BME280;9093;52.062;4.508;2023-03-13T00:15:58;100344.34;;;9.92;76.99
17936;BME280;9093;52.062;4.508;2023-03-13T00:18:44;100330.03;;;9.93;77.06
17936;BME280;9093;52.062;4.508;2023-03-13T00:21:27;100324.56;;;9.96;77.00
17936;BME280;9093;52.062;4.508;2023-03-13T00:24:10;100309.31;;;9.98;76.93
17936;BME280;9093;52.062;4.508;2023-03-13T00:26:51;100303.06;;;9.99;77.24
17936;BME280;9093;52.062;4.508;2023-03-13T00:29:33;100290.47;;;10.01;77.29
17936;BME280;9093;52.062;4.508;2023-03-13T00:32:13;100281.50;;;10.02;77.35
17936;BME280;9093;52.062;4.508;2023-03-13T00:34:53;100276.00;;;10.05;77.37
17936;BME280;9093;52.062;4.508;2023-03-13T00:37:34;100274.09;;;10.07;77.43
17936;BME280;9093;52.062;4.508;2023-03-13T00:40:14;100270.47;;;10.08;77.55
17936;BME280;9093;52.062;4.508;2023-03-13T00:42:55;100263.25;;;10.10;77.59
17936;BME280;9093;52.062;4.508;2023-03-13T00:45:35;100260.38;;;10.13;77.70
17936;BME280;9093;52.062;4.508;2023-03-13T00:48:16;100255.81;;;10.15;77.72
17936;BME280;9093;52.062;4.508;2023-03-13T00:50:56;100238.09;;;10.14;77.84
17936;BME280;9093;52.062;4.508;2023-03-13T00:53:36;100241.53;;;10.16;77.79
17936;BME280;9093;52.062;4.508;2023-03-13T00:56:19;100239.63;;;10.18;78.13
17936;BME280;9093;52.062;4.508;2023-03-13T00:58:59;100219.16;;;10.19;77.99
17936;BME280;9093;52.062;4.508;2023-03-13T01:01:40;100215.53;;;10.20;78.10
17936;BME280;9093;52.062;4.508;2023-03-13T01:04:21;100202.13;;;10.21;78.28
17936;BME280;9093;52.062;4.508;2023-03-13T01:07:04;100201.16;;;10.22;78.29
17936;BME280;9093;52.062;4.508;2023-03-13T01:09:44;100191.28;;;10.24;78.58
17936;BME280;9093;52.062;4.508;2023-03-13T01:12:25;100196.47;;;10.26;78.37
17936;BME280;9093;52.062;4.508;2023-03-13T01:15:06;100173.34;;;10.26;78.32
17936;BME280;9093;52.062;4.508;2023-03-13T01:17:46;100181.91;;;10.31;78.50
17936;BME280;9093;52.062;4.508;2023-03-13T01:20:28;100164.00;;;10.33;78.70
17936;BME280;9093;52.062;4.508;2023-03-13T01:23:08;100167.50;;;10.34;78.84
17936;BME280;9093;52.062;4.508;2023-03-13T01:25:49;100160.16;;;10.37;78.88
17936;BME280;9093;52.062;4.508;2023-03-13T01:28:29;100149.31;;;10.40;78.76
17936;BME280;9093;52.062;4.508;2023-03-13T01:31:14;100152.75;;;10.42;78.80
17936;BME280;9093;52.062;4.508;2023-03-13T01:33:59;100154.44;;;10.43;78.95
17936;BME280;9093;52.062;4.508;2023-03-13T01:36:39;100139.97;;;10.47;79.21
17936;BME280;9093;52.062;4.508;2023-03-13T01:39:20;100130.78;;;10.52;79.13
17936;BME280;9093;52.062;4.508;2023-03-13T01:42:02;100122.78;;;10.52;79.16
17936;BME280;9093;52.062;4.508;2023-03-13T01:44:55;100118.00;;;10.57;79.35
17936;BME280;9093;52.062;4.508;2023-03-13T01:47:36;100110.56;;;10.62;79.13
17936;BME280;9093;52.062;4.508;2023-03-13T01:50:16;100126.38;;;10.65;79.45
17936;BME280;9093;52.062;4.508;2023-03-13T01:52:56;100099.56;;;10.66;79.45
17936;BME280;9093;52.062;4.508;2023-03-13T01:55:37;100102.88;;;10.70;79.64
17936;BME280;9093;52.062;4.508;2023-03-13T01:58:17;100074.28;;;10.72;79.63
17936;BME280;9093;52.062;4.508;2023-03-13T02:00:59;100099.81;;;10.76;79.82
17936;BME280;9093;52.062;4.508;2023-03-13T02:03:39;100068.53;;;10.78;79.90
17936;BME280;9093;52.062;4.508;2023-03-13T02:06:20;100072.69;;;10.82;79.88
17936;BME280;9093;52.062;4.508;2023-03-13T02:09:04;100066.31;;;10.84;80.14
17936;BME280;9093;52.062;4.508;2023-03-13T02:12:13;100058.06;;;10.87;80.13
17936;BME280;9093;52.062;4.508;2023-03-13T02:14:57;100063.84;;;10.94;80.27
17936;BME280;9093;52.062;4.508;2023-03-13T02:17:39;100049.38;;;10.98;80.25
17936;BME280;9093;52.062;4.508;2023-03-13T02:20:20;100057.16;;;11.01;80.30
17936;BME280;9093;52.062;4.508;2023-03-13T02:23:21;100058.66;;;11.05;80.55
17936;BME280;9093;52.062;4.508;2023-03-13T02:26:03;100048.53;;;11.10;80.40
17936;BME280;9093;52.062;4.508;2023-03-13T02:28:44;100054.41;;;11.15;80.59
17936;BME280;9093;52.062;4.508;2023-03-13T02:31:24;100037.19;;;11.19;80.79
17936;BME280;9093;52.062;4.508;2023-03-13T02:34:06;100033.56;;;11.20;80.76
17936;BME280;9093;52.062;4.508;2023-03-13T02:36:47;100039.44;;;11.25;81.08
17936;BME280;9093;52.062;4.508;2023-03-13T02:39:29;100037.31;;;11.31;80.85
17936;BME280;9093;52.062;4.508;2023-03-13T02:42:11;100032.19;;;11.27;81.07
17936;BME280;9093;52.062;4.508;2023-03-13T02:44:53;100042.53;;;11.32;81.05
17936;BME280;9093;52.062;4.508;2023-03-13T02:47:33;100026.22;;;11.37;81.30
17936;BME280;9093;52.062;4.508;2023-03-13T02:50:14;100039.34;;;11.40;81.49
17936;BME280;9093;52.062;4.508;2023-03-13T02:52:58;100037.19;;;11.45;81.71
17936;BME280;9093;52.062;4.508;2023-03-13T02:55:41;100025.25;;;11.50;81.52
17936;BME280;9093;52.062;4.508;2023-03-13T02:58:23;100019.75;;;11.52;81.72
17936;BME280;9093;52.062;4.508;2023-03-13T03:01:04;100011.31;;;11.58;81.82
17936;BME280;9093;52.062;4.508;2023-03-13T03:03:46;99999.13;;;11.54;81.75
17936;BME280;9093;52.062;4.508;2023-03-13T03:06:27;100026.28;;;11.60;81.82
17936;BME280;9093;52.062;4.508;2023-03-13T03:09:08;99982.22;;;11.66;81.95
17936;BME280;9093;52.062;4.508;2023-03-13T03:11:48;99991.00;;;11.68;82.31
17936;BME280;9093;52.062;4.508;2023-03-13T03:14:28;99981.78;;;11.72;82.23
17936;BME280;9093;52.062;4.508;2023-03-13T03:17:09;99987.66;;;11.77;82.26
17936;BME280;9093;52.062;4.508;2023-03-13T03:19:49;99985.66;;;11.81;82.46
17936;BME280;9093;52.062;4.508;2023-03-13T03:22:29;99990.66;;;11.85;82.53
17936;BME280;9093;52.062;4.508;2023-03-13T03:25:10;99999.28;;;11.89;82.53
17936;BME280;9093;52.062;4.508;2023-03-13T03:27:50;99986.78;;;11.89;82.57
17936;BME280;9093;52.062;4.508;2023-03-13T03:30:30;99993.75;;;11.92;82.76
17936;BME280;9093;52.062;4.508;2023-03-13T03:33:11;99984.66;;;11.94;82.74
17936;BME280;9093;52.062;4.508;2023-03-13T03:35:51;99980.03;;;11.96;82.83
17936;BME280;9093;52.062;4.508;2023-03-13T03:38:32;99990.50;;;11.99;82.96
17936;BME280;9093;52.062;4.508;2023-03-13T03:41:12;99986.97;;;11.99;83.08
17936;BME280;9093;52.062;4.508;2023-03-13T03:43:53;99972.75;;;11.98;83.02
17936;BME280;9093;52.062;4.508;2023-03-13T03:46:33;99986.03;;;12.00;83.31
17936;BME280;9093;52.062;4.508;2023-03-13T03:49:14;99978.84;;;12.00;83.24
17936;BME280;9093;52.062;4.508;2023-03-13T03:51:54;99990.41;;;12.01;83.25
17936;BME280;9093;52.062;4.508;2023-03-13T03:54:34;99979.56;;;12.02;83.61
17936;BME280;9093;52.062;4.508;2023-03-13T03:57:15;99979.56;;;12.02;83.80
17936;BME280;9093;52.062;4.508;2023-03-13T03:59:57;99967.06;;;12.03;83.64
17936;BME280;9093;52.062;4.508;2023-03-13T04:02:38;99965.22;;;12.03;83.70
17936;BME280;9093;52.062;4.508;2023-03-13T04:05:18;99954.53;;;12.03;83.71
17936;BME280;9093;52.062;4.508;2023-03-13T04:07:59;99965.13;;;12.05;83.92
17936;BME280;9093;52.062;4.508;2023-03-13T04:10:39;99972.28;;;12.04;83.80
17936;BME280;9093;52.062;4.508;2023-03-13T04:13:19;99947.25;;;12.05;84.08
17936;BME280;9093;52.062;4.508;2023-03-13T04:16:06;99957.09;;;12.05;84.10
17936;BME280;9093;52.062;4.508;2023-03-13T04:18:47;99962.44;;;12.05;83.83
17936;BME280;9093;52.062;4.508;2023-03-13T04:21:27;99947.25;;;12.05;84.25
17936;BME280;9093;52.062;4.508;2023-03-13T04:24:07;99967.81;;;12.05;84.24
17936;BME280;9093;52.062;4.508;2023-03-13T04:26:48;99963.06;;;12.08;84.10
17936;BME280;9093;52.062;4.508;2023-03-13T04:29:28;99952.38;;;12.08;84.28
17936;BME280;9093;52.062;4.508;2023-03-13T04:32:09;99934.38;;;12.11;84.40
17936;BME280;9093;52.062;4.508;2023-03-13T04:34:49;99931.50;;;12.14;84.36
17936;BME280;9093;52.062;4.508;2023-03-13T04:37:30;99948.50;;;12.13;84.34
17936;BME280;9093;52.062;4.508;2023-03-13T04:40:13;99927.81;;;12.15;84.40
17936;BME280;9093;52.062;4.508;2023-03-13T04:42:53;99944.63;;;12.17;84.36
17936;BME280;9093;52.062;4.508;2023-03-13T04:45:33;99914.34;;;12.16;84.57
17936;BME280;9093;52.062;4.508;2023-03-13T04:48:14;99911.56;;;12.18;84.39
17936;BME280;9093;52.062;4.508;2023-03-13T04:50:54;99911.44;;;12.19;84.57
17936;BME280;9093;52.062;4.508;2023-03-13T04:53:35;99912.31;;;12.20;84.39
17936;BME280;9093;52.062;4.508;2023-03-13T04:56:25;99894.53;;;12.19;84.78
17936;BME280;9093;52.062;4.508;2023-03-13T04:59:06;99905.00;;;12.22;84.59
17936;BME280;9093;52.062;4.508;2023-03-13T05:01:47;99901.34;;;12.23;84.62
17936;BME280;9093;52.062;4.508;2023-03-13T05:04:27;99893.22;;;12.24;84.71
17936;BME280;9093;52.062;4.508;2023-03-13T05:07:07;99889.44;;;12.27;84.66
17936;BME280;9093;52.062;4.508;2023-03-13T05:09:47;99886.75;;;12.27;84.72
17936;BME280;9093;52.062;4.508;2023-03-13T05:12:28;99865.13;;;12.30;84.79
17936;BME280;9093;52.062;4.508;2023-03-13T05:15:08;99864.91;;;12.33;84.66
17936;BME280;9093;52.062;4.508;2023-03-13T05:17:49;99888.16;;;12.32;84.63
17936;BME280;9093;52.062;4.508;2023-03-13T05:20:29;99878.78;;;12.38;84.57
17936;BME280;9093;52.062;4.508;2023-03-13T05:23:09;99857.38;;;12.38;84.51
17936;BME280;9093;52.062;4.508;2023-03-13T05:25:50;99856.53;;;12.37;84.68
17936;BME280;9093;52.062;4.508;2023-03-13T05:28:30;99848.59;;;12.36;84.50
17936;BME280;9093;52.062;4.508;2023-03-13T05:31:11;99850.31;;;12.37;84.57
17936;BME280;9093;52.062;4.508;2023-03-13T05:33:51;99844.00;;;12.38;84.43
17936;BME280;9093;52.062;4.508;2023-03-13T05:36:32;99847.16;;;12.43;84.41
17936;BME280;9093;52.062;4.508;2023-03-13T05:39:12;99856.06;;;12.43;84.48
17936;BME280;9093;52.062;4.508;2023-03-13T05:41:52;99840.84;;;12.44;84.31
17936;BME280;9093;52.062;4.508;2023-03-13T05:44:33;99853.00;;;12.48;84.15
17936;BME280;9093;52.062;4.508;2023-03-13T05:47:16;99831.59;;;12.48;84.41
17936;BME280;9093;52.062;4.508;2023-03-13T05:49:57;99847.66;;;12.48;84.22
17936;BME280;9093;52.062;4.508;2023-03-13T05:52:39;99830.50;;;12.51;84.15
17936;BME280;9093;52.062;4.508;2023-03-13T05:55:19;99829.41;;;12.53;84.19
17936;BME280;9093;52.062;4.508;2023-03-13T05:58:00;99821.25;;;12.55;84.22
17936;BME280;9093;52.062;4.508;2023-03-13T06:00:40;99843.31;;;12.58;84.16
17936;BME280;9093;52.062;4.508;2023-03-13T06:03:22;99841.59;;;12.57;84.17
17936;BME280;9093;52.062;4.508;2023-03-13T06:06:03;99852.16;;;12.59;84.15
17936;BME280;9093;52.062;4.508;2023-03-13T06:08:43;99839.63;;;12.59;84.16
17936;BME280;9093;52.062;4.508;2023-03-13T06:11:24;99844.13;;;12.59;84.28
17936;BME280;9093;52.062;4.508;2023-03-13T06:14:04;99843.91;;;12.62;84.16
17936;BME280;9093;52.062;4.508;2023-03-13T06:16:45;99860.84;;;12.62;84.02
17936;BME280;9093;52.062;4.508;2023-03-13T06:19:25;99857.19;;;12.63;84.03
17936;BME280;9093;52.062;4.508;2023-03-13T06:22:05;99849.16;;;12.63;83.95
17936;BME280;9093;52.062;4.508;2023-03-13T06:24:46;99851.34;;;12.58;84.06
17936;BME280;9093;52.062;4.508;2023-03-13T06:27:28;99860.81;;;12.51;83.81
17936;BME280;9093;52.062;4.508;2023-03-13T06:30:09;99861.03;;;12.48;83.95
17936;BME280;9093;52.062;4.508;2023-03-13T06:32:50;99852.41;;;12.44;83.99
17936;BME280;9093;52.062;4.508;2023-03-13T06:35:30;99865.03;;;12.42;83.88
17936;BME280;9093;52.062;4.508;2023-03-13T06:38:11;99852.75;;;12.40;83.93
17936;BME280;9093;52.062;4.508;2023-03-13T06:40:51;99861.03;;;12.37;83.81
17936;BME280;9093;52.062;4.508;2023-03-13T06:43:31;99852.34;;;12.33;84.58
17936;BME280;9093;52.062;4.508;2023-03-13T06:46:17;99861.25;;;12.34;84.02
17936;BME280;9093;52.062;4.508;2023-03-13T06:48:59;99858.81;;;12.31;84.48
17936;BME280;9093;52.062;4.508;2023-03-13T06:51:43;99860.00;;;12.27;84.29
17936;BME280;9093;52.062;4.508;2023-03-13T06:54:24;99833.50;;;12.24;84.28
17936;BME280;9093;52.062;4.508;2023-03-13T06:57:04;99868.28;;;12.24;84.43
17936;BME280;9093;52.062;4.508;2023-03-13T06:59:44;99849.53;;;12.24;84.73
17936;BME280;9093;52.062;4.508;2023-03-13T07:02:25;99845.66;;;12.28;84.39
17936;BME280;9093;52.062;4.508;2023-03-13T07:05:05;99864.06;;;12.32;84.37
17936;BME280;9093;52.062;4.508;2023-03-13T07:07:46;99862.25;;;12.33;84.28
17936;BME280;9093;52.062;4.508;2023-03-13T07:10:27;99848.00;;;12.32;84.42
17936;BME280;9093;52.062;4.508;2023-03-13T07:13:08;99849.69;;;12.33;84.47
17936;BME280;9093;52.062;4.508;2023-03-13T07:15:48;99848.84;;;12.33;84.48
17936;BME280;9093;52.062;4.508;2023-03-13T07:18:29;99850.53;;;12.34;84.57
17936;BME280;9093;52.062;4.508;2023-03-13T07:21:10;99848.84;;;12.33;84.71
17936;BME280;9093;52.062;4.508;2023-03-13T07:23:51;99846.19;;;12.33;84.29
17936;BME280;9093;52.062;4.508;2023-03-13T07:26:31;99853.34;;;12.32;84.58
17936;BME280;9093;52.062;4.508;2023-03-13T07:29:12;99857.50;;;12.36;84.52
17936;BME280;9093;52.062;4.508;2023-03-13T07:31:52;99866.13;;;12.40;84.78
17936;BME280;9093;52.062;4.508;2023-03-13T07:34:32;99860.28;;;12.46;84.81
17936;BME280;9093;52.062;4.508;2023-03-13T07:37:14;99878.72;;;12.51;84.52
17936;BME280;9093;52.062;4.508;2023-03-13T07:39:55;99865.81;;;12.56;84.50
17936;BME280;9093;52.062;4.508;2023-03-13T07:42:38;99854.63;;;12.62;84.66
17936;BME280;9093;52.062;4.508;2023-03-13T07:45:19;99858.75;;;12.66;84.38
17936;BME280;9093;52.062;4.508;2023-03-13T07:47:59;99830.63;;;12.71;84.37
17936;BME280;9093;52.062;4.508;2023-03-13T07:50:39;99835.50;;;12.77;84.19
17936;BME280;9093;52.062;4.508;2023-03-13T07:53:20;99846.75;;;12.82;84.07
17936;BME280;9093;52.062;4.508;2023-03-13T07:56:03;99841.75;;;12.89;84.00
17936;BME280;9093;52.062;4.508;2023-03-13T07:58:44;99835.06;;;12.95;84.18
17936;BME280;9093;52.062;4.508;2023-03-13T08:01:26;99839.31;;;12.97;84.37
17936;BME280;9093;52.062;4.508;2023-03-13T08:04:11;99839.06;;;13.00;84.02
17936;BME280;9093;52.062;4.508;2023-03-13T08:06:52;99835.41;;;13.01;83.97
17936;BME280;9093;52.062;4.508;2023-03-13T08:09:33;99823.59;;;13.04;84.01
17936;BME280;9093;52.062;4.508;2023-03-13T08:12:13;99828.72;;;13.07;83.99
17936;BME280;9093;52.062;4.508;2023-03-13T08:14:54;99819.72;;;13.08;83.97
17936;BME280;9093;52.062;4.508;2023-03-13T08:17:34;99864.03;;;13.12;83.89
17936;BME280;9093;52.062;4.508;2023-03-13T08:20:15;99824.59;;;13.14;84.18
17936;BME280;9093;52.062;4.508;2023-03-13T08:22:55;99811.69;;;13.19;83.87
17936;BME280;9093;52.062;4.508;2023-03-13T08:25:36;99833.88;;;13.21;83.86
17936;BME280;9093;52.062;4.508;2023-03-13T08:28:16;99803.03;;;13.26;83.92
17936;BME280;9093;52.062;4.508;2023-03-13T08:30:56;99840.16;;;13.31;83.81
17936;BME280;9093;52.062;4.508;2023-03-13T08:33:38;99814.81;;;13.35;83.64
17936;BME280;9093;52.062;4.508;2023-03-13T08:36:23;99818.97;;;13.39;83.45
17936;BME280;9093;52.062;4.508;2023-03-13T08:39:13;99821.38;;;13.42;83.56
17936;BME280;9093;52.062;4.508;2023-03-13T08:41:53;99813.94;;;13.46;83.31
17936;BME280;9093;52.062;4.508;2023-03-13T08:44:34;99820.16;;;13.46;82.97
17936;BME280;9093;52.062;4.508;2023-03-13T08:47:14;99797.88;;;13.46;82.80
17936;BME280;9093;52.062;4.508;2023-03-13T08:49:54;99809.44;;;13.46;82.55
17936;BME280;9093;52.062;4.508;2023-03-13T08:52:35;99821.00;;;13.47;82.42
17936;BME280;9093;52.062;4.508;2023-03-13T08:55:15;99805.00;;;13.56;82.07
17936;BME280;9093;52.062;4.508;2023-03-13T08:57:55;99793.53;;;13.65;81.65
17936;BME280;9093;52.062;4.508;2023-03-13T09:00:36;99787.66;;;13.72;81.52
17936;BME280;9093;52.062;4.508;2023-03-13T09:03:16;99783.75;;;13.76;81.29
17936;BME280;9093;52.062;4.508;2023-03-13T09:05:58;99782.50;;;13.80;80.98
17936;BME280;9093;52.062;4.508;2023-03-13T09:08:39;99795.38;;;13.86;80.90
17936;BME280;9093;52.062;4.508;2023-03-13T09:11:20;99778.78;;;13.92;80.33
17936;BME280;9093;52.062;4.508;2023-03-13T09:14:00;99779.38;;;13.95;80.70
17936;BME280;9093;52.062;4.508;2023-03-13T09:16:41;99769.84;;;14.02;80.19
17936;BME280;9093;52.062;4.508;2023-03-13T09:19:21;99758.56;;;14.08;79.94
17936;BME280;9093;52.062;4.508;2023-03-13T09:22:02;99752.69;;;14.15;79.57
17936;BME280;9093;52.062;4.508;2023-03-13T09:24:42;99757.53;;;14.21;79.24
17936;BME280;9093;52.062;4.508;2023-03-13T09:27:23;99766.16;;;14.24;79.09
17936;BME280;9093;52.062;4.508;2023-03-13T09:30:04;99752.47;;;14.27;79.08
17936;BME280;9093;52.062;4.508;2023-03-13T09:32:45;99739.75;;;14.29;79.16
17936;BME280;9093;52.062;4.508;2023-03-13T09:35:26;99761.97;;;14.31;79.10
17936;BME280;9093;52.062;4.508;2023-03-13T09:38:06;99729.25;;;14.37;78.79
17936;BME280;9093;52.062;4.508;2023-03-13T09:40:49;99725.16;;;14.43;78.68
17936;BME280;9093;52.062;4.508;2023-03-13T09:43:47;99714.75;;;14.49;78.36
17936;BME280;9093;52.062;4.508;2023-03-13T09:46:37;99708.56;;;14.59;78.03
17936;BME280;9093;52.062;4.508;2023-03-13T09:49:28;99708.03;;;14.65;77.73
17936;BME280;9093;52.062;4.508;2023-03-13T09:52:14;99710.28;;;14.69;77.64
17936;BME280;9093;52.062;4.508;2023-03-13T09:55:02;99714.41;;;14.73;77.38
17936;BME280;9093;52.062;4.508;2023-03-13T09:57:52;99704.97;;;14.79;77.21
17936;BME280;9093;52.062;4.508;2023-03-13T10:00:36;99721.53;;;14.84;76.78
17936;BME280;9093;52.062;4.508;2023-03-13T10:06:20;99701.03;;;14.93;76.57
17936;BME280;9093;52.062;4.508;2023-03-13T10:09:02;99720.13;;;14.99;76.55
17936;BME280;9093;52.062;4.508;2023-03-13T10:12:24;99698.81;;;14.98;76.01
17936;BME280;9093;52.062;4.508;2023-03-13T10:18:16;99692.56;;;15.07;75.36
17936;BME280;9093;52.062;4.508;2023-03-13T10:20:59;99691.75;;;15.16;74.99
17936;BME280;9093;52.062;4.508;2023-03-13T10:24:01;99743.13;;;15.22;74.55
17936;BME280;9093;52.062;4.508;2023-03-13T10:26:43;99708.47;;;15.29;74.00
17936;BME280;9093;52.062;4.508;2023-03-13T10:29:26;99682.00;;;15.34;73.51
17936;BME280;9093;52.062;4.508;2023-03-13T10:32:07;99705.06;;;15.37;72.68
17936;BME280;9093;52.062;4.508;2023-03-13T10:34:55;99724.59;;;15.39;72.04
17936;BME280;9093;52.062;4.508;2023-03-13T10:37:42;99698.13;;;15.44;71.45
17936;BME280;9093;52.062;4.508;2023-03-13T10:40:24;99698.97;;;15.44;71.57
17936;BME280;9093;52.062;4.508;2023-03-13T10:43:13;99701.53;;;15.46;71.18
17936;BME280;9093;52.062;4.508;2023-03-13T10:45:54;99711.31;;;15.47;70.92
17936;BME280;9093;52.062;4.508;2023-03-13T10:48:35;99703.97;;;15.49;70.96
17936;BME280;9093;52.062;4.508;2023-03-13T10:51:21;99691.19;;;15.51;70.83
17936;BME280;9093;52.062;4.508;2023-03-13T10:59:49;99732.84;;;15.76;70.23
17936;BME280;9093;52.062;4.508;2023-03-13T11:02:33;99701.16;;;15.79;69.68
17936;BME280;9093;52.062;4.508;2023-03-13T11:05:40;99704.81;;;15.78;69.54
17936;BME280;9093;52.062;4.508;2023-03-13T11:08:24;99720.66;;;15.81;68.98
17936;BME280;9093;52.062;4.508;2023-03-13T11:11:16;99704.81;;;15.78;68.09
17936;BME280;9093;52.062;4.508;2023-03-13T11:14:08;99692.66;;;15.74;67.45
17936;BME280;9093;52.062;4.508;2023-03-13T11:20:04;99702.97;;;15.69;66.77
17936;BME280;9093;52.062;4.508;2023-03-13T11:22:55;99725.78;;;15.65;66.55
17936;BME280;9093;52.062;4.508;2023-03-13T11:26:00;99711.91;;;15.60;66.03
17936;BME280;9093;52.062;4.508;2023-03-13T11:31:50;99677.38;;;15.55;65.67
17936;BME280;9093;52.062;4.508;2023-03-13T11:34:39;99725.63;;;15.57;65.28
17936;BME280;9093;52.062;4.508;2023-03-13T11:37:24;99703.00;;;15.59;64.60
17936;BME280;9093;52.062;4.508;2023-03-13T11:40:30;99701.16;;;15.60;63.94
17936;BME280;9093;52.062;4.508;2023-03-13T11:46:02;99689.41;;;15.80;63.30
17936;BME280;9093;52.062;4.508;2023-03-13T11:52:22;99679.03;;;15.85;62.40
17936;BME280;9093;52.062;4.508;2023-03-13T11:55:26;99713.03;;;15.86;62.37
17936;BME280;9093;52.062;4.508;2023-03-13T12:01:06;99691.75;;;16.02;62.10
17936;BME280;9093;52.062;4.508;2023-03-13T12:12:24;99674.28;;;16.06;62.31
17936;BME280;9093;52.062;4.508;2023-03-13T12:18:12;99670.25;;;15.93;62.15
17936;BME280;9093;52.062;4.508;2023-03-13T12:32:41;99669.94;;;15.96;61.86
17936;BME280;9093;52.062;4.508;2023-03-13T12:35:29;99695.47;;;15.92;61.77
17936;BME280;9093;52.062;4.508;2023-03-13T12:38:23;99663.56;;;15.87;61.90
17936;BME280;9093;52.062;4.508;2023-03-13T12:41:45;99699.13;;;15.81;61.84
17936;BME280;9093;52.062;4.508;2023-03-13T12:44:27;99667.97;;;15.88;61.40
17936;BME280;9093;52.062;4.508;2023-03-13T12:47:25;99701.84;;;15.91;61.07
17936;BME280;9093;52.062;4.508;2023-03-13T12:50:47;99671.38;;;15.90;60.72
17936;BME280;9093;52.062;4.508;2023-03-13T12:56:52;99648.44;;;15.86;59.46
17936;BME280;9093;52.062;4.508;2023-03-13T12:59:39;99688.06;;;15.94;59.09
17936;BME280;9093;52.062;4.508;2023-03-13T13:02:22;99699.00;;;15.92;58.89
17936;BME280;9093;52.062;4.508;2023-03-13T13:05:04;99640.78;;;15.91;58.53
17936;BME280;9093;52.062;4.508;2023-03-13T13:07:52;99605.78;;;15.91;58.61
17936;BME280;9093;52.062;4.508;2023-03-13T13:10:33;99651.22;;;15.94;58.33
17936;BME280;9093;52.062;4.508;2023-03-13T13:16:17;99617.81;;;15.87;58.13
17936;BME280;9093;52.062;4.508;2023-03-13T13:25:32;99569.47;;;16.05;58.02
17936;BME280;9093;52.062;4.508;2023-03-13T13:30:54;99643.28;;;16.02;57.81
17936;BME280;9093;52.062;4.508;2023-03-13T13:33:36;99611.28;;;15.99;57.61
17936;BME280;9093;52.062;4.508;2023-03-13T13:39:00;99564.97;;;15.96;57.26
17936;BME280;9093;52.062;4.508;2023-03-13T13:41:41;99602.91;;;16.02;57.30
17936;BME280;9093;52.062;4.508;2023-03-13T13:44:26;99580.06;;;16.06;57.59
17936;BME280;9093;52.062;4.508;2023-03-13T13:47:22;99602.91;;;16.02;57.07
17936;BME280;9093;52.062;4.508;2023-03-13T13:53:30;99564.50;;;16.00;56.61
17936;BME280;9093;52.062;4.508;2023-03-13T13:59:24;99561.81;;;16.00;55.44
17936;BME280;9093;52.062;4.508;2023-03-13T14:04:48;99549.78;;;16.04;55.21
17936;BME280;9093;52.062;4.508;2023-03-13T14:10:35;99552.00;;;16.09;55.23
17936;BME280;9093;52.062;4.508;2023-03-13T14:13:17;99546.50;;;16.11;55.56
17936;BME280;9093;52.062;4.508;2023-03-13T14:16:08;99503.31;;;16.02;55.49
17936;BME280;9093;52.062;4.508;2023-03-13T14:18:52;99542.09;;;16.09;55.47
17936;BME280;9093;52.062;4.508;2023-03-13T14:21:32;99519.16;;;16.05;55.25
17936;BME280;9093;52.062;4.508;2023-03-13T14:24:15;99533.03;;;16.11;55.31
17936;BME280;9093;52.062;4.508;2023-03-13T14:26:55;99529.34;;;16.12;54.83
17936;BME280;9093;52.062;4.508;2023-03-13T14:29:36;99525.63;;;16.13;54.36
17936;BME280;9093;52.062;4.508;2023-03-13T14:32:16;99518.25;;;16.15;54.41
17936;BME280;9093;52.062;4.508;2023-03-13T14:34:57;99540.66;;;16.15;54.35
17936;BME280;9093;52.062;4.508;2023-03-13T14:37:40;99582.59;;;16.18;54.00
17936;BME280;9093;52.062;4.508;2023-03-13T14:40:27;99551.94;;;16.19;53.70
17936;BME280;9093;52.062;4.508;2023-03-13T14:43:29;99522.34;;;16.19;53.29
17936;BME280;9093;52.062;4.508;2023-03-13T14:46:20;99531.81;;;16.23;53.26
17936;BME280;9093;52.062;4.508;2023-03-13T14:49:12;99530.84;;;16.24;52.88
17936;BME280;9093;52.062;4.508;2023-03-13T14:52:00;99541.28;;;16.27;52.82
17936;BME280;9093;52.062;4.508;2023-03-13T14:54:53;99475.97;;;16.25;52.72
17936;BME280;9093;52.062;4.508;2023-03-13T14:57:34;99497.53;;;16.25;52.73
17936;BME280;9093;52.062;4.508;2023-03-13T15:06:04;99498.66;;;16.22;52.75
17936;BME280;9093;52.062;4.508;2023-03-13T15:09:13;99512.59;;;16.18;52.74
17936;BME280;9093;52.062;4.508;2023-03-13T15:11:58;99515.09;;;16.19;52.59
17936;BME280;9093;52.062;4.508;2023-03-13T15:14:40;99503.81;;;16.16;52.72
17936;BME280;9093;52.062;4.508;2023-03-13T15:17:24;99508.78;;;16.11;52.70
17936;BME280;9093;52.062;4.508;2023-03-13T15:20:05;99510.91;;;16.07;52.21
17936;BME280;9093;52.062;4.508;2023-03-13T15:22:48;99494.94;;;16.05;52.55
17936;BME280;9093;52.062;4.508;2023-03-13T15:25:28;99502.16;;;16.05;52.73
17936;BME280;9093;52.062;4.508;2023-03-13T15:30:54;99483.16;;;16.06;52.54
17936;BME280;9093;52.062;4.508;2023-03-13T15:33:34;99493.78;;;16.08;52.62
17936;BME280;9093;52.062;4.508;2023-03-13T15:36:15;99511.91;;;16.06;52.31
17936;BME280;9093;52.062;4.508;2023-03-13T15:38:55;99536.91;;;15.98;52.26
17936;BME280;9093;52.062;4.508;2023-03-13T15:41:36;99484.22;;;15.96;52.50
17936;BME280;9093;52.062;4.508;2023-03-13T15:44:16;99469.91;;;15.95;52.51
17936;BME280;9093;52.062;4.508;2023-03-13T15:46:57;99455.16;;;15.99;52.13
17936;BME280;9093;52.062;4.508;2023-03-13T15:49:37;99463.91;;;16.01;52.42
17936;BME280;9093;52.062;4.508;2023-03-13T15:52:19;99460.84;;;15.96;52.10
17936;BME280;9093;52.062;4.508;2023-03-13T15:55:01;99444.28;;;15.91;52.04
17936;BME280;9093;52.062;4.508;2023-03-13T15:57:44;99453.34;;;15.90;51.97
17936;BME280;9093;52.062;4.508;2023-03-13T16:00:26;99437.22;;;15.90;52.21
17936;BME280;9093;52.062;4.508;2023-03-13T16:03:15;99442.88;;;15.87;51.81
17936;BME280;9093;52.062;4.508;2023-03-13T16:05:56;99450.66;;;15.90;51.90